Terminal Aerodrome Forecast
Issued by NWS Huntsville, AL

Home | Current Version | Previous Version | Text Only | Print | Product List | Glossary On
Versions: 1 2 3 4 5 6 7 8 9 10 11 12 13 14 15 16 17 18 19 20 21 22 23 24 25 26 27 28 29 30 31 32 33 34
000
FTUS44 KHUN 212330
TAFHSV
TAF
KHSV 212330Z 2200/2224 08005KT P6SM BKN035
     FM220300 10003KT P6SM FEW009 OVC020
     FM220700 12005KT P6SM OVC015
     FM221400 13008KT 6SM -DZ OVC009=

USA.gov is the U.S. government's official web portal to all federal, state and local government web resources and services.